Similk Beach, Washington
Current Conditions -  °F | °C
As of 4:56 AM on Saturday 01 Nov 2014 (Local Time) from KNUW Reporting Station
Haze Haze  
Wind Chill: 45°   Ceiling: Unl
Heat Index: 45°   Visibility: 3mi
Dew Point: 42°   Wind: 0mph
Humidity: 90%   Direction: NA
Pressure: 29.88"   Gusts: NA
Location:  48.4652°N, 122.617°W
Report Text: KNUW 011156Z 00000KT 3SM BR FEW010 SCT250 07/06 A2988 RMK AO2 SLP121 70036 T00720056 10094 20061 57000 $
Loading
Personal Weather Stations






























Interactive Weather Map New forecast layout! Learn more

10-Day Weather Forecast

Advertisements
Track Severe Weather on mobile